Terminal Aerodrome Forecast
Issued by NWS Lake Charles, LA

Current Version | Previous Version | Text Only | Print | Product List | Glossary On
Versions: 1 2 3 4 5 6 7 8 9 10 11 12 13 14 15
441
FTUS44 KLCH 081122
TAFLCH
TAF
KLCH 081122Z 0812/0912 33010G15KT P6SM SKC
     FM081600 33017G22KT P6SM SKC
     FM090000 33012KT P6SM SKC=

USA.gov is the U.S. government's official web portal to all federal, state and local government web resources and services.